Lomond, Canada
Current Conditions -  °F | °C
As of 4:00 AM on Friday 31 Oct 2014 (Local Time) from CYDF Reporting Station
Overcast Overcast  
Wind Chill: 37°   Ceiling: 1900
Heat Index: 43°   Visibility: 15mi
Dew Point: 39°   Wind: 10mph
Humidity: 87%   Direction: 230°SW
Pressure: 29.74"   Gusts: NA
Location:  49.45°N, 57.93°W
Report Text: CYDF 310600Z 23009KT 15SM OVC019 06/04 A2974 RMK SC8 SLP071
Loading
Personal Weather Stations






























Interactive Weather Map
Tropical Storm Tracking
New forecast layout! Learn more

10-Day Weather Forecast

Advertisements
Track Severe Weather on mobile